createdAt,value
2017-09-17T00:01:33.883Z,9.50
2017-09-17T00:04:01.347Z,9.50
2017-09-17T00:06:28.839Z,9.50
2017-09-17T00:08:57.132Z,9.50
2017-09-17T00:11:25.359Z,9.50
2017-09-17T00:13:52.835Z,9.50
2017-09-17T00:16:20.312Z,9.50
2017-09-17T00:18:47.819Z,9.50
2017-09-17T00:21:15.285Z,9.50
2017-09-17T00:23:42.754Z,9.50
2017-09-17T00:26:10.217Z,9.50
2017-09-17T00:28:37.678Z,9.50
2017-09-17T00:31:05.523Z,9.50
2017-09-17T00:33:32.991Z,9.60
2017-09-17T00:36:00.472Z,9.60
2017-09-17T00:38:27.932Z,9.60
2017-09-17T00:40:55.396Z,9.60
2017-09-17T00:43:23.640Z,9.60
2017-09-17T00:45:51.949Z,9.60
2017-09-17T00:48:20.192Z,9.60
2017-09-17T00:50:47.688Z,9.60
2017-09-17T00:53:15.912Z,9.60
2017-09-17T00:55:43.424Z,9.50
2017-09-17T00:58:11.647Z,9.50
2017-09-17T01:00:39.112Z,9.50
2017-09-17T01:03:07.304Z,9.50
2017-09-17T01:05:34.773Z,9.60
2017-09-17T01:08:03.000Z,9.50
2017-09-17T01:10:30.455Z,9.50
2017-09-17T01:12:58.340Z,9.50
2017-09-17T01:15:25.799Z,9.40
2017-09-17T01:17:54.296Z,9.40
2017-09-17T01:20:21.772Z,9.40
2017-09-17T01:22:49.994Z,9.40
2017-09-17T01:25:18.096Z,9.40
2017-09-17T01:27:46.078Z,9.40
2017-09-17T01:30:13.535Z,9.30
2017-09-17T01:32:41.758Z,9.30
2017-09-17T01:35:09.239Z,9.20
2017-09-17T01:37:36.870Z,9.30
2017-09-17T01:40:04.384Z,9.30
2017-09-17T01:42:31.855Z,9.20
2017-09-17T01:45:00.102Z,9.20
2017-09-17T01:47:27.568Z,9.20
2017-09-17T01:49:55.043Z,9.20
2017-09-17T01:52:23.294Z,9.10
2017-09-17T01:54:50.755Z,9.10
2017-09-17T01:57:18.228Z,9.10
2017-09-17T01:59:46.466Z,9.10
2017-09-17T02:02:13.951Z,9.10
2017-09-17T02:04:42.212Z,9.00
2017-09-17T02:07:09.670Z,9.00
2017-09-17T02:09:37.301Z,9.00
2017-09-17T02:12:04.783Z,8.90
2017-09-17T02:14:32.238Z,9.00
2017-09-17T02:16:59.704Z,8.90
2017-09-17T02:19:27.192Z,8.90
2017-09-17T02:21:55.431Z,8.80
2017-09-17T02:24:23.659Z,8.80
2017-09-17T02:26:51.163Z,8.80
2017-09-17T02:29:19.351Z,8.80
2017-09-17T02:31:46.835Z,8.80
2017-09-17T02:34:15.069Z,8.80
2017-09-17T02:36:42.526Z,8.70
2017-09-17T02:39:09.982Z,8.70
2017-09-17T02:41:37.548Z,8.70
2017-09-17T02:44:05.095Z,8.70
2017-09-17T02:46:32.582Z,8.60
2017-09-17T02:49:00.839Z,8.60
2017-09-17T02:51:28.295Z,8.60
2017-09-17T02:53:55.858Z,8.60
2017-09-17T02:56:23.370Z,8.60
2017-09-17T02:58:50.846Z,8.60
2017-09-17T03:01:18.309Z,8.60
2017-09-17T03:03:45.783Z,8.50
2017-09-17T03:06:13.241Z,8.50
2017-09-17T03:08:40.703Z,8.60
2017-09-17T03:11:08.942Z,8.50
2017-09-17T03:13:36.420Z,8.50
2017-09-17T03:16:03.875Z,8.50
2017-09-17T03:18:31.343Z,8.50
2017-09-17T03:20:59.618Z,8.50
2017-09-17T03:23:27.846Z,8.50
2017-09-17T03:25:55.343Z,8.50
2017-09-17T03:28:23.615Z,8.40
2017-09-17T03:30:53.160Z,8.50
2017-09-17T03:33:20.635Z,8.50
2017-09-17T03:35:48.095Z,8.40
2017-09-17T03:38:15.566Z,8.40
2017-09-17T03:40:43.035Z,8.30
2017-09-17T03:43:10.497Z,8.40
2017-09-17T03:45:39.468Z,8.30
2017-09-17T03:48:06.963Z,8.30
2017-09-17T03:50:34.428Z,8.30
2017-09-17T03:53:02.652Z,8.40
2017-09-17T03:55:30.138Z,8.40
2017-09-17T03:57:57.603Z,8.30
2017-09-17T04:00:26.591Z,8.20
2017-09-17T04:02:54.866Z,8.30
2017-09-17T04:05:22.321Z,8.30
2017-09-17T04:07:50.579Z,8.20
2017-09-17T04:10:18.048Z,8.20
2017-09-17T04:12:46.292Z,8.20
2017-09-17T04:15:13.749Z,8.20
2017-09-17T04:17:41.727Z,8.20
2017-09-17T04:20:09.183Z,8.20
2017-09-17T04:22:36.638Z,8.10
2017-09-17T04:25:04.158Z,8.20
2017-09-17T04:27:31.630Z,8.10
2017-09-17T04:29:59.152Z,8.10
2017-09-17T04:32:26.695Z,8.10
2017-09-17T04:34:54.932Z,8.10
2017-09-17T04:37:22.387Z,8.00
2017-09-17T04:39:49.860Z,8.00
2017-09-17T04:42:17.951Z,8.00
2017-09-17T04:44:46.231Z,7.90
2017-09-17T04:47:13.702Z,7.90
2017-09-17T04:49:41.205Z,7.90
2017-09-17T04:52:08.662Z,7.90
2017-09-17T04:54:36.132Z,7.90
2017-09-17T04:57:03.604Z,7.90
2017-09-17T04:59:31.064Z,7.90
2017-09-17T05:01:58.635Z,7.90
2017-09-17T05:04:26.199Z,7.90
2017-09-17T05:06:53.654Z,7.90
2017-09-17T05:09:21.119Z,7.90
2017-09-17T05:11:49.346Z,7.90
2017-09-17T05:14:16.794Z,7.90
2017-09-17T05:16:44.276Z,7.90
2017-09-17T05:19:11.755Z,7.90
2017-09-17T05:21:39.207Z,7.90
2017-09-17T05:24:06.679Z,7.90
2017-09-17T05:26:34.911Z,8.00
2017-09-17T05:29:02.392Z,8.00
2017-09-17T05:31:29.855Z,8.00
2017-09-17T05:33:57.314Z,8.00
2017-09-17T05:36:25.539Z,8.00
2017-09-17T05:38:53.020Z,8.00
2017-09-17T05:41:20.491Z,8.00
2017-09-17T05:43:48.736Z,8.00
2017-09-17T05:46:16.200Z,8.00
2017-09-17T05:48:43.671Z,8.10
2017-09-17T05:51:11.143Z,8.10
2017-09-17T05:53:38.613Z,8.10
2017-09-17T05:56:06.839Z,8.10
2017-09-17T05:58:34.312Z,8.10
2017-09-17T06:01:01.792Z,8.10
2017-09-17T06:03:29.256Z,8.10
2017-09-17T06:05:57.496Z,8.20
2017-09-17T06:08:24.994Z,8.20
2017-09-17T06:10:53.216Z,8.30
2017-09-17T06:13:20.670Z,8.20
2017-09-17T06:15:48.149Z,8.30
2017-09-17T06:18:15.603Z,8.40
2017-09-17T06:20:43.058Z,8.40
2017-09-17T06:23:10.541Z,8.50
2017-09-17T06:25:38.007Z,8.50
2017-09-17T06:28:06.248Z,8.50
2017-09-17T06:30:33.712Z,8.50
2017-09-17T06:33:01.183Z,8.60
2017-09-17T06:35:28.652Z,8.60
2017-09-17T06:37:56.907Z,8.80
2017-09-17T06:40:24.392Z,8.80
2017-09-17T06:42:52.678Z,8.90
2017-09-17T06:45:20.930Z,9.00
2017-09-17T06:47:48.476Z,9.00
2017-09-17T06:50:16.035Z,9.00
2017-09-17T06:52:43.507Z,9.10
2017-09-17T06:55:11.771Z,9.30
2017-09-17T06:57:39.244Z,9.30
2017-09-17T07:00:07.500Z,9.40
2017-09-17T07:02:34.986Z,9.40
2017-09-17T07:05:06.219Z,9.60
2017-09-17T07:07:34.470Z,9.70
2017-09-17T07:10:01.932Z,9.60
2017-09-17T07:12:29.496Z,9.70
2017-09-17T07:14:57.059Z,9.80
2017-09-17T07:17:24.573Z,10.00
2017-09-17T07:19:52.027Z,10.10
2017-09-17T07:22:19.865Z,10.20
2017-09-17T07:24:47.358Z,10.30
2017-09-17T07:27:14.873Z,10.40
2017-09-17T07:29:43.129Z,10.60
2017-09-17T07:32:10.592Z,10.60
2017-09-17T07:34:40.100Z,10.80
2017-09-17T07:37:08.330Z,10.90
2017-09-17T07:39:35.823Z,10.90
2017-09-17T07:42:03.302Z,11.00
2017-09-17T07:44:32.432Z,11.20
2017-09-17T07:46:59.895Z,11.20
2017-09-17T07:49:27.388Z,11.40
2017-09-17T07:51:54.891Z,11.50
2017-09-17T07:54:22.402Z,11.60
2017-09-17T07:56:49.959Z,11.80
2017-09-17T07:59:17.423Z,11.90
2017-09-17T08:01:45.708Z,12.10
2017-09-17T08:04:13.963Z,12.20
2017-09-17T08:06:42.243Z,12.20
2017-09-17T08:09:09.716Z,12.30
2017-09-17T08:11:38.504Z,12.40
2017-09-17T08:14:06.750Z,12.30
2017-09-17T08:18:57.267Z,12.30
2017-09-17T08:21:25.503Z,12.40
2017-09-17T08:23:52.971Z,12.40
2017-09-17T08:26:20.446Z,12.40
2017-09-17T08:28:47.920Z,12.40
2017-09-17T08:31:15.384Z,12.40
2017-09-17T08:33:43.634Z,12.50
2017-09-17T08:36:11.107Z,12.50
2017-09-17T08:38:38.576Z,12.60
2017-09-17T08:41:06.859Z,12.70
2017-09-17T08:43:35.111Z,12.90
2017-09-17T08:46:02.584Z,12.90
2017-09-17T08:48:30.835Z,13.20
2017-09-17T08:50:58.299Z,13.20
2017-09-17T08:53:29.434Z,13.50
2017-09-17T08:55:57.092Z,13.70
2017-09-17T08:58:24.567Z,13.90
2017-09-17T09:00:55.690Z,14.00
2017-09-17T09:03:23.980Z,14.50
2017-09-17T09:05:51.572Z,14.40
2017-09-17T09:08:19.047Z,14.60
2017-09-17T09:10:46.511Z,14.70
2017-09-17T09:13:13.988Z,14.90
2017-09-17T09:15:42.187Z,15.00
2017-09-17T09:18:09.660Z,15.10
2017-09-17T09:20:38.411Z,15.40
2017-09-17T09:23:05.916Z,15.40
2017-09-17T09:25:33.403Z,15.60
2017-09-17T09:28:01.316Z,15.70
2017-09-17T09:30:29.553Z,15.60
2017-09-17T09:32:57.398Z,15.60
2017-09-17T09:35:24.869Z,15.80
2017-09-17T09:37:53.184Z,15.80
2017-09-17T09:40:21.383Z,15.80
2017-09-17T09:42:49.613Z,15.80
2017-09-17T09:45:17.087Z,15.80
2017-09-17T09:47:44.561Z,15.80
2017-09-17T09:50:12.821Z,15.90
2017-09-17T09:52:40.295Z,15.90
2017-09-17T09:55:08.531Z,15.90
2017-09-17T09:57:36.102Z,15.90
2017-09-17T10:00:03.618Z,16.00
2017-09-17T10:02:31.131Z,16.10
2017-09-17T10:04:58.605Z,16.10
2017-09-17T10:07:26.844Z,16.10
2017-09-17T10:09:54.631Z,16.10
2017-09-17T10:12:22.870Z,16.10
2017-09-17T10:14:50.447Z,16.10
2017-09-17T10:17:18.360Z,16.20
2017-09-17T10:19:45.835Z,16.40
2017-09-17T10:22:13.320Z,16.40
2017-09-17T10:24:42.157Z,16.50
2017-09-17T10:27:09.634Z,16.70
2017-09-17T10:29:37.114Z,16.90
2017-09-17T10:32:04.696Z,17.20
2017-09-17T10:34:32.171Z,17.20
2017-09-17T10:37:00.431Z,17.20
2017-09-17T10:39:27.891Z,17.20
2017-09-17T10:41:55.451Z,17.60
2017-09-17T10:44:23.019Z,17.80
2017-09-17T10:46:51.264Z,18.00
2017-09-17T10:49:18.839Z,18.00
2017-09-17T10:51:46.308Z,18.10
2017-09-17T10:54:14.584Z,18.50
2017-09-17T10:56:42.852Z,18.50
2017-09-17T10:59:10.350Z,18.50
2017-09-17T11:01:38.731Z,18.60
2017-09-17T11:04:06.240Z,18.50
2017-09-17T11:06:33.792Z,18.50
2017-09-17T11:09:01.267Z,18.60
2017-09-17T11:11:29.507Z,18.70
2017-09-17T11:13:56.987Z,18.70
2017-09-17T11:16:24.447Z,18.70
2017-09-17T11:18:51.924Z,18.90
2017-09-17T11:21:20.163Z,19.10
2017-09-17T11:23:47.612Z,19.00
2017-09-17T11:26:15.093Z,19.30
2017-09-17T11:28:42.642Z,19.40
2017-09-17T11:31:10.107Z,19.20
2017-09-17T11:33:38.079Z,18.90
2017-09-17T11:36:05.531Z,18.70
2017-09-17T11:38:33.760Z,18.30
2017-09-17T11:41:01.566Z,18.30
2017-09-17T11:43:29.145Z,18.10
2017-09-17T11:45:57.403Z,18.40
2017-09-17T11:48:24.916Z,18.40
2017-09-17T11:50:52.420Z,18.50
2017-09-17T11:53:19.898Z,18.80
2017-09-17T11:55:48.139Z,18.90
2017-09-17T11:58:16.364Z,19.10
2017-09-17T12:00:43.843Z,19.10
2017-09-17T12:03:11.336Z,19.10
2017-09-17T12:05:38.801Z,19.30
2017-09-17T12:08:06.260Z,19.40
2017-09-17T12:10:34.520Z,19.40
2017-09-17T12:13:01.992Z,19.40
2017-09-17T12:15:30.970Z,19.00
2017-09-17T12:17:58.430Z,19.00
2017-09-17T12:20:25.887Z,19.00
2017-09-17T12:22:53.386Z,18.80
2017-09-17T12:25:20.863Z,18.80
2017-09-17T12:27:48.364Z,18.50
2017-09-17T12:30:15.829Z,18.50
2017-09-17T12:32:44.240Z,18.70
2017-09-17T12:35:11.708Z,18.70
2017-09-17T12:37:40.041Z,18.90
2017-09-17T12:40:08.612Z,19.00
2017-09-17T12:42:36.183Z,19.00
2017-09-17T12:45:03.634Z,19.00
2017-09-17T12:47:31.396Z,19.00
2017-09-17T12:49:59.660Z,19.40
2017-09-17T12:52:27.123Z,19.40
2017-09-17T12:54:54.588Z,19.30
2017-09-17T12:57:22.046Z,19.10
2017-09-17T12:59:49.513Z,18.90
2017-09-17T13:02:17.800Z,18.60
2017-09-17T13:04:45.335Z,18.60
2017-09-17T13:07:13.559Z,18.70
2017-09-17T13:09:41.027Z,18.70
2017-09-17T13:12:08.492Z,18.90
2017-09-17T13:14:35.949Z,19.30
2017-09-17T13:17:03.523Z,19.50
2017-09-17T13:19:30.989Z,19.50
2017-09-17T13:21:58.449Z,19.70
2017-09-17T13:24:25.915Z,19.70
2017-09-17T13:26:54.138Z,19.90
2017-09-17T13:29:21.600Z,19.90
2017-09-17T13:31:49.078Z,19.90
2017-09-17T13:34:16.546Z,19.90
2017-09-17T13:36:44.105Z,19.70
2017-09-17T13:39:12.204Z,19.50
2017-09-17T13:41:39.662Z,19.40
2017-09-17T13:44:07.119Z,19.50
2017-09-17T13:46:34.947Z,20.00
2017-09-17T13:49:02.416Z,20.30
2017-09-17T13:51:30.644Z,20.80
2017-09-17T13:53:58.350Z,20.70
2017-09-17T13:56:25.804Z,20.80
2017-09-17T13:58:53.287Z,21.00
2017-09-17T14:01:35.963Z,21.00
2017-09-17T14:04:05.733Z,21.00
2017-09-17T14:06:35.675Z,20.50
2017-09-17T14:09:03.131Z,20.50
2017-09-17T14:11:30.607Z,20.60
2017-09-17T14:13:58.063Z,20.30
2017-09-17T14:16:25.523Z,19.90
2017-09-17T14:18:52.994Z,19.40
2017-09-17T14:21:21.224Z,19.60
2017-09-17T14:23:49.260Z,19.60
2017-09-17T14:26:17.581Z,20.00
2017-09-17T14:28:45.548Z,20.00
2017-09-17T14:31:13.003Z,20.10
2017-09-17T14:33:40.491Z,20.20
2017-09-17T14:36:08.717Z,19.80
2017-09-17T14:38:36.231Z,19.80
2017-09-17T14:41:04.468Z,19.50
2017-09-17T14:43:32.473Z,19.50
2017-09-17T14:46:00.716Z,19.50
2017-09-17T14:48:28.283Z,19.50
2017-09-17T14:50:55.752Z,19.40
2017-09-17T14:53:23.214Z,19.30
2017-09-17T14:55:51.459Z,19.50
2017-09-17T14:58:18.916Z,19.40
2017-09-17T15:00:46.371Z,19.70
2017-09-17T15:03:13.858Z,19.80
2017-09-17T15:05:41.413Z,19.90
2017-09-17T15:08:08.871Z,19.90
2017-09-17T15:10:36.419Z,19.90
2017-09-17T15:13:03.884Z,19.80
2017-09-17T15:15:31.359Z,19.70
2017-09-17T15:17:59.602Z,19.30
2017-09-17T15:20:27.075Z,19.30
2017-09-17T15:22:54.532Z,19.30
2017-09-17T15:25:22.008Z,19.40
2017-09-17T15:27:50.242Z,19.20
2017-09-17T15:30:17.708Z,19.10
2017-09-17T15:32:45.239Z,19.30
2017-09-17T15:35:12.687Z,19.10
2017-09-17T15:37:40.296Z,19.20
2017-09-17T15:40:07.747Z,19.10
2017-09-17T15:42:35.203Z,19.00
2017-09-17T15:45:03.139Z,19.00
2017-09-17T15:47:30.635Z,19.00
2017-09-17T15:49:58.111Z,19.10
2017-09-17T15:52:25.595Z,19.20
2017-09-17T15:54:53.053Z,19.40
2017-09-17T15:57:20.559Z,19.50
2017-09-17T15:59:48.033Z,19.50
2017-09-17T16:02:16.293Z,19.90
2017-09-17T16:04:43.903Z,19.90
2017-09-17T16:07:11.367Z,20.20
2017-09-17T16:09:38.843Z,20.30
2017-09-17T16:12:06.321Z,20.40
2017-09-17T16:14:33.800Z,20.50
2017-09-17T16:17:02.047Z,20.30
2017-09-17T16:19:29.870Z,20.20
2017-09-17T16:21:57.363Z,20.20
2017-09-17T16:24:24.832Z,19.80
2017-09-17T16:26:52.588Z,19.60
2017-09-17T16:29:20.049Z,19.40
2017-09-17T16:31:47.515Z,19.30
2017-09-17T16:34:15.835Z,19.00
2017-09-17T16:36:43.296Z,19.00
2017-09-17T16:39:10.795Z,18.80
2017-09-17T16:41:38.267Z,18.60
2017-09-17T16:44:06.497Z,18.20
2017-09-17T16:46:33.968Z,18.20
2017-09-17T16:49:01.437Z,18.10
2017-09-17T16:51:28.912Z,17.80
2017-09-17T16:53:56.663Z,17.70
2017-09-17T16:56:24.216Z,17.70
2017-09-17T16:58:51.681Z,17.70
2017-09-17T17:01:19.150Z,17.50
2017-09-17T17:03:46.641Z,17.30
2017-09-17T17:06:14.103Z,17.10
2017-09-17T17:08:41.585Z,17.00
2017-09-17T17:11:09.043Z,16.90
2017-09-17T17:13:36.520Z,16.80
2017-09-17T17:16:04.014Z,16.60
2017-09-17T17:18:31.465Z,16.60
2017-09-17T17:20:58.928Z,16.50
2017-09-17T17:23:28.086Z,16.40
2017-09-17T17:25:55.539Z,16.40
2017-09-17T17:28:23.008Z,16.30
2017-09-17T17:30:51.256Z,16.20
2017-09-17T17:33:18.711Z,16.20
2017-09-17T17:35:46.201Z,16.10
2017-09-17T17:38:14.511Z,16.00
2017-09-17T17:40:42.018Z,16.00
2017-09-17T17:43:09.760Z,15.90
2017-09-17T17:45:37.217Z,15.80
2017-09-17T17:48:04.669Z,15.70
2017-09-17T17:50:32.264Z,15.60
2017-09-17T17:53:00.496Z,15.50
2017-09-17T17:55:28.038Z,15.50
2017-09-17T17:57:55.501Z,15.50
2017-09-17T18:00:22.972Z,15.40
2017-09-17T18:02:50.440Z,15.40
2017-09-17T18:05:17.916Z,15.40
2017-09-17T18:07:45.380Z,15.30
2017-09-17T18:10:13.628Z,15.30
2017-09-17T18:12:41.087Z,15.30
2017-09-17T18:15:08.560Z,15.30
2017-09-17T18:17:36.029Z,15.30
2017-09-17T18:20:04.252Z,15.20
2017-09-17T18:22:31.739Z,15.10
2017-09-17T18:24:59.207Z,15.10
2017-09-17T18:27:26.949Z,15.10
2017-09-17T18:29:54.529Z,15.10
2017-09-17T18:32:22.211Z,15.00
2017-09-17T18:34:50.464Z,14.80
2017-09-17T18:37:17.940Z,14.80
2017-09-17T18:39:46.203Z,14.60
2017-09-17T18:42:14.432Z,14.50
2017-09-17T18:44:41.904Z,14.50
2017-09-17T18:47:09.489Z,14.40
2017-09-17T18:49:37.721Z,14.30
2017-09-17T18:52:05.183Z,14.30
2017-09-17T18:54:32.680Z,14.20
2017-09-17T18:57:00.196Z,14.10
2017-09-17T18:59:27.672Z,14.00
2017-09-17T19:01:55.140Z,14.00
2017-09-17T19:04:23.379Z,13.90
2017-09-17T19:06:50.898Z,13.90
2017-09-17T19:09:19.156Z,13.80
2017-09-17T19:11:47.748Z,13.80
2017-09-17T19:14:16.062Z,13.80
2017-09-17T19:16:43.531Z,13.80
2017-09-17T19:19:11.004Z,13.80
2017-09-17T19:21:38.476Z,13.70
2017-09-17T19:24:05.943Z,13.70
2017-09-17T19:26:33.713Z,13.60
2017-09-17T19:29:01.387Z,13.60
2017-09-17T19:31:29.637Z,13.40
2017-09-17T19:33:57.131Z,13.40
2017-09-17T19:36:24.588Z,13.40
2017-09-17T19:38:52.195Z,13.40
2017-09-17T19:41:20.077Z,13.40
2017-09-17T19:43:47.635Z,13.40
2017-09-17T19:46:15.200Z,13.40
2017-09-17T19:48:42.965Z,13.50
2017-09-17T19:51:10.521Z,13.40
2017-09-17T19:53:38.408Z,13.30
2017-09-17T19:56:07.172Z,13.30
2017-09-17T19:58:35.413Z,13.20
2017-09-17T20:01:02.875Z,13.20
2017-09-17T20:03:31.189Z,13.20
2017-09-17T20:05:59.422Z,13.10
2017-09-17T20:08:26.925Z,13.00
2017-09-17T20:10:55.228Z,13.00
2017-09-17T20:13:22.701Z,13.00
2017-09-17T20:15:50.176Z,13.00
2017-09-17T20:18:17.923Z,13.00
2017-09-17T20:20:46.149Z,13.00
2017-09-17T20:23:13.718Z,13.00
2017-09-17T20:25:42.249Z,13.20
2017-09-17T20:28:09.841Z,13.10
2017-09-17T20:30:37.643Z,13.20
2017-09-17T20:33:05.133Z,13.20
2017-09-17T20:35:32.579Z,13.20
2017-09-17T20:38:00.062Z,13.30
2017-09-17T20:40:27.549Z,13.20
2017-09-17T20:42:55.809Z,13.20
2017-09-17T20:45:23.359Z,13.20
2017-09-17T20:47:51.645Z,13.20
2017-09-17T20:50:19.248Z,13.10
2017-09-17T20:52:46.756Z,13.20
2017-09-17T20:55:14.530Z,13.20
2017-09-17T20:57:42.763Z,13.20
2017-09-17T21:00:10.320Z,13.20
2017-09-17T21:02:38.800Z,13.20
2017-09-17T21:05:06.269Z,13.20
2017-09-17T21:07:33.737Z,13.10
2017-09-17T21:10:01.195Z,13.10
2017-09-17T21:12:28.660Z,13.10
2017-09-17T21:14:56.140Z,13.00
2017-09-17T21:25:04.400Z,12.90
2017-09-17T21:27:31.881Z,12.90
2017-09-17T21:30:00.106Z,12.80
2017-09-17T21:32:27.588Z,12.80
2017-09-17T21:34:55.055Z,12.80
2017-09-17T21:37:22.511Z,12.80
2017-09-17T21:39:49.987Z,12.80
2017-09-17T21:42:18.251Z,12.80
2017-09-17T21:44:46.512Z,12.90
2017-09-17T21:47:13.971Z,12.80
2017-09-17T21:49:41.440Z,12.80
2017-09-17T21:52:09.669Z,12.80
2017-09-17T21:54:37.144Z,12.70
2017-09-17T21:57:04.618Z,12.70
2017-09-17T21:59:32.088Z,12.70
2017-09-17T22:02:00.324Z,12.70
2017-09-17T22:04:27.810Z,12.70
2017-09-17T22:06:55.283Z,12.70
2017-09-17T22:09:23.512Z,12.70
2017-09-17T22:11:50.980Z,12.70
2017-09-17T22:14:18.452Z,12.70
2017-09-17T22:16:45.916Z,12.70
2017-09-17T22:19:14.159Z,12.70
2017-09-17T22:21:41.635Z,12.70
2017-09-17T22:24:09.192Z,12.70
2017-09-17T22:26:36.648Z,12.70
2017-09-17T22:29:04.115Z,12.70
2017-09-17T22:31:31.587Z,12.60
2017-09-17T22:33:59.840Z,12.70
2017-09-17T22:36:27.928Z,12.70
2017-09-17T22:38:56.167Z,12.80
2017-09-17T22:41:23.743Z,12.70
2017-09-17T22:43:51.226Z,12.80
2017-09-17T22:46:19.476Z,12.70
2017-09-17T22:48:46.944Z,12.80
2017-09-17T22:51:15.185Z,12.80
2017-09-17T22:53:42.656Z,12.80
2017-09-17T22:56:10.116Z,12.90
2017-09-17T22:58:37.683Z,12.80
2017-09-17T23:01:05.244Z,12.80
2017-09-17T23:03:32.720Z,12.90
2017-09-17T23:06:00.968Z,12.80
2017-09-17T23:08:28.431Z,12.80
2017-09-17T23:10:55.984Z,12.80
2017-09-17T23:13:23.452Z,12.80
2017-09-17T23:15:51.003Z,12.80
2017-09-17T23:18:19.412Z,12.80
2017-09-17T23:20:46.883Z,12.80
2017-09-17T23:23:14.412Z,12.80
2017-09-17T23:25:42.643Z,12.80
2017-09-17T23:28:10.123Z,12.80
2017-09-17T23:30:38.239Z,12.80
2017-09-17T23:33:05.695Z,12.70
2017-09-17T23:35:33.213Z,12.80
2017-09-17T23:38:00.775Z,12.80
2017-09-17T23:40:28.244Z,12.80
2017-09-17T23:42:56.499Z,12.70
2017-09-17T23:45:23.964Z,12.70
2017-09-17T23:47:52.239Z,12.70
2017-09-17T23:50:19.696Z,12.60
2017-09-17T23:52:47.155Z,12.60
2017-09-17T23:55:15.388Z,12.60
2017-09-17T23:57:42.860Z,12.60
